Time;durP1;ratioP1;P1;durP2;ratioP2;P2;SDS_P1;SDS_P2;PMS_P1;PMS_P2;Temp;Humidity;BMP_temperature;BMP_pressure;BME280_temperature;BME280_humidity;BME280_pressure;Samples;Min_cycle;Max_cycle;Signal;HPM_P1;HPM_P2
2021/11/11 00:01:36;;;;;;;27.53;15.60;;;;;;;;;;5119013;28;20993;-68
2021/11/11 00:04:06;;;;;;;27.73;15.30;;;;;;;;;;5118876;28;20610;-68
2021/11/11 00:06:34;;;;;;;25.10;14.13;;;;;;;;;;5119100;28;20474;-68
2021/11/11 00:09:02;;;;;;;28.07;15.73;;;;;;;;;;5119064;28;20307;-67
2021/11/11 00:11:30;;;;;;;26.17;14.80;;;;;;;;;;5118841;28;20442;-67
2021/11/11 00:13:58;;;;;;;28.53;16.00;;;;;;;;;;5118704;28;20521;-68
2021/11/11 00:16:26;;;;;;;29.63;16.47;;;;;;;;;;5118948;28;20268;-67
2021/11/11 00:18:54;;;;;;;37.80;18.53;;;;;;;;;;5118458;28;20482;-67
2021/11/11 00:21:24;;;;;;;29.50;15.47;;;;;;;;;;5118013;28;20476;-67
2021/11/11 00:23:52;;;;;;;30.20;14.73;;;;;;;;;;5116981;28;20513;-68
2021/11/11 00:26:20;;;;;;;33.77;15.93;;;;;;;;;;5116634;28;20477;-68
2021/11/11 00:28:49;;;;;;;27.80;15.70;;;;;;;;;;5116755;28;20545;-68
2021/11/11 00:31:17;;;;;;;34.83;17.30;;;;;;;;;;5116770;28;20475;-67
2021/11/11 00:33:45;;;;;;;31.03;16.63;;;;;;;;;;5116749;28;20479;-67
2021/11/11 00:36:13;;;;;;;30.47;15.80;;;;;;;;;;5116714;28;21004;-68
2021/11/11 00:38:43;;;;;;;29.67;15.90;;;;;;;;;;5118957;28;21038;-68
2021/11/11 00:41:11;;;;;;;28.10;15.17;;;;;;;;;;5118632;28;20869;-67
2021/11/11 00:43:39;;;;;;;31.93;15.23;;;;;;;;;;5118246;28;20975;-68
2021/11/11 00:46:07;;;;;;;27.87;15.70;;;;;;;;;;5118600;28;20530;-68
2021/11/11 00:48:35;;;;;;;28.20;15.43;;;;;;;;;;5117924;28;20989;-67
2021/11/11 00:51:03;;;;;;;24.93;15.13;;;;;;;;;;5118488;28;20526;-68
2021/11/11 00:53:31;;;;;;;33.20;17.00;;;;;;;;;;5118230;28;20453;-67
2021/11/11 00:56:01;;;;;;;32.27;16.93;;;;;;;;;;5117958;28;20557;-67
2021/11/11 00:58:29;;;;;;;28.43;15.07;;;;;;;;;;5117919;28;20511;-67
2021/11/11 01:01:00;;;;;;;28.80;15.23;;;;;;;;;;5117882;28;20534;-67
2021/11/11 01:03:34;;;;;;;27.77;15.50;;;;;;;;;;5117991;28;20439;-68
2021/11/11 01:06:03;;;;;;;32.83;16.07;;;;;;;;;;5118567;28;20438;-68
2021/11/11 01:08:31;;;;;;;30.50;16.13;;;;;;;;;;5118243;28;21048;-68
2021/11/11 01:11:00;;;;;;;26.27;15.27;;;;;;;;;;5117686;28;20219;-67
2021/11/11 01:13:30;;;;;;;28.23;15.23;;;;;;;;;;5118575;28;20243;-68
2021/11/11 01:15:58;;;;;;;28.53;16.30;;;;;;;;;;5117811;28;20311;-68
2021/11/11 01:18:27;;;;;;;24.03;14.23;;;;;;;;;;5118153;28;20278;-67
2021/11/11 01:20:55;;;;;;;31.53;16.00;;;;;;;;;;5117976;28;20259;-67
2021/11/11 01:23:23;;;;;;;31.00;16.63;;;;;;;;;;5117869;28;20732;-67
2021/11/11 01:25:51;;;;;;;26.40;15.77;;;;;;;;;;5117851;28;20280;-68
2021/11/11 01:28:19;;;;;;;29.33;16.63;;;;;;;;;;5117917;28;20251;-68
2021/11/11 01:30:48;;;;;;;34.53;18.17;;;;;;;;;;5117607;28;20286;-68
2021/11/11 01:33:16;;;;;;;27.70;17.77;;;;;;;;;;5117869;28;20525;-68
2021/11/11 01:35:45;;;;;;;32.50;16.83;;;;;;;;;;5117629;28;20514;-68
2021/11/11 01:38:14;;;;;;;35.77;17.07;;;;;;;;;;5117551;28;20893;-68
2021/11/11 01:40:42;;;;;;;32.17;17.03;;;;;;;;;;5117678;28;20470;-68
2021/11/11 01:43:11;;;;;;;34.40;16.90;;;;;;;;;;5117740;28;20465;-67
2021/11/11 01:45:40;;;;;;;30.57;16.13;;;;;;;;;;5117892;28;20468;-68
2021/11/11 01:48:12;;;;;;;33.93;17.83;;;;;;;;;;5117733;28;20549;-68
2021/11/11 01:50:40;;;;;;;28.77;15.87;;;;;;;;;;5117448;28;20470;-67
2021/11/11 01:53:10;;;;;;;28.13;16.07;;;;;;;;;;5117465;28;20509;-67
2021/11/11 01:55:38;;;;;;;29.43;15.47;;;;;;;;;;5117465;28;20996;-68
2021/11/11 01:58:06;;;;;;;28.00;15.40;;;;;;;;;;5117690;28;20549;-67
2021/11/11 02:00:37;;;;;;;38.27;17.23;;;;;;;;;;5117470;28;21009;-68
2021/11/11 02:03:06;;;;;;;29.67;15.63;;;;;;;;;;5117982;28;20495;-68
2021/11/11 02:05:36;;;;;;;32.10;14.50;;;;;;;;;;5117888;28;20284;-68
2021/11/11 02:08:05;;;;;;;28.10;16.90;;;;;;;;;;5117813;28;20763;-67
2021/11/11 02:10:34;;;;;;;34.30;18.20;;;;;;;;;;5117445;28;20241;-68
2021/11/11 02:13:03;;;;;;;38.70;18.10;;;;;;;;;;5119695;28;20653;-68
2021/11/11 02:15:32;;;;;;;38.40;19.27;;;;;;;;;;5121467;28;20569;-68
2021/11/11 02:18:00;;;;;;;36.17;18.10;;;;;;;;;;5120952;28;20458;-68
2021/11/11 02:20:31;;;;;;;38.67;18.63;;;;;;;;;;5121240;28;20518;-67
2021/11/11 02:23:00;;;;;;;38.63;18.40;;;;;;;;;;5121277;27;20521;-68
2021/11/11 02:25:29;;;;;;;37.73;18.40;;;;;;;;;;5120424;28;20470;-68
2021/11/11 02:28:00;;;;;;;36.83;17.23;;;;;;;;;;5120777;28;20561;-68
2021/11/11 02:30:30;;;;;;;34.33;18.07;;;;;;;;;;5121265;28;20525;-68
2021/11/11 02:32:58;;;;;;;32.43;17.87;;;;;;;;;;5122113;28;20534;-68
2021/11/11 02:35:27;;;;;;;38.83;17.80;;;;;;;;;;5121941;28;20632;-68
2021/11/11 02:37:56;;;;;;;28.67;15.90;;;;;;;;;;5120636;28;20865;-68
2021/11/11 02:40:25;;;;;;;34.50;17.73;;;;;;;;;;5120566;28;20531;-68
2021/11/11 02:42:53;;;;;;;34.43;17.33;;;;;;;;;;5120817;27;20514;-68
2021/11/11 02:45:23;;;;;;;32.37;17.30;;;;;;;;;;5120661;28;20523;-68
2021/11/11 02:47:51;;;;;;;32.93;17.37;;;;;;;;;;5120699;28;20244;-69
2021/11/11 02:50:19;;;;;;;35.63;18.07;;;;;;;;;;5120377;27;20668;-68
2021/11/11 02:52:48;;;;;;;38.50;18.97;;;;;;;;;;5120618;28;20509;-68
2021/11/11 02:55:18;;;;;;;31.83;17.93;;;;;;;;;;5120441;27;20539;-68
2021/11/11 02:57:47;;;;;;;42.87;19.73;;;;;;;;;;5120749;28;20464;-67
2021/11/11 03:00:16;;;;;;;38.87;18.67;;;;;;;;;;5120610;28;20479;-68
2021/11/11 03:02:46;;;;;;;31.53;17.40;;;;;;;;;;5120921;28;20525;-67
2021/11/11 03:05:16;;;;;;;34.23;17.53;;;;;;;;;;5120554;28;20431;-68
2021/11/11 03:07:45;;;;;;;32.87;16.40;;;;;;;;;;5120386;28;20941;-68
2021/11/11 03:10:16;;;;;;;30.37;15.60;;;;;;;;;;5119824;28;20521;-68
2021/11/11 03:12:45;;;;;;;30.33;15.37;;;;;;;;;;5120002;28;20522;-67
2021/11/11 03:15:14;;;;;;;36.03;16.47;;;;;;;;;;5120138;28;20482;-68
2021/11/11 03:17:43;;;;;;;34.53;16.70;;;;;;;;;;5120137;28;20525;-68
2021/11/11 03:20:12;;;;;;;35.17;17.07;;;;;;;;;;5119717;28;20881;-68
2021/11/11 03:22:42;;;;;;;33.30;16.57;;;;;;;;;;5119836;28;20466;-68
2021/11/11 03:25:11;;;;;;;31.97;16.00;;;;;;;;;;5119937;28;20450;-68
2021/11/11 03:27:39;;;;;;;31.23;17.47;;;;;;;;;;5119963;28;20530;-68
2021/11/11 03:30:10;;;;;;;34.90;17.97;;;;;;;;;;5120649;28;20471;-68
2021/11/11 03:32:38;;;;;;;36.53;18.77;;;;;;;;;;5120502;28;20506;-68
2021/11/11 03:35:07;;;;;;;32.63;16.73;;;;;;;;;;5119875;28;20515;-68
2021/11/11 03:37:35;;;;;;;40.50;17.03;;;;;;;;;;5119791;28;20467;-68
2021/11/11 03:40:05;;;;;;;36.53;17.53;;;;;;;;;;5119046;27;20953;-68
2021/11/11 03:42:33;;;;;;;32.63;17.33;;;;;;;;;;5119367;27;20868;-68
2021/11/11 03:45:01;;;;;;;32.93;16.43;;;;;;;;;;5119614;28;20525;-68
2021/11/11 03:47:30;;;;;;;37.03;17.63;;;;;;;;;;5119376;28;20882;-68
2021/11/11 03:49:58;;;;;;;40.10;18.37;;;;;;;;;;5119304;28;20490;-68
2021/11/11 03:52:26;;;;;;;42.30;19.93;;;;;;;;;;5119171;28;20502;-68
2021/11/11 03:54:54;;;;;;;36.37;18.93;;;;;;;;;;5119108;28;20482;-67
2021/11/11 03:57:22;;;;;;;35.87;18.77;;;;;;;;;;5119287;28;20570;-67
2021/11/11 03:59:50;;;;;;;35.93;17.70;;;;;;;;;;5119286;28;20558;-68
2021/11/11 04:02:23;;;;;;;36.33;18.87;;;;;;;;;;5104065;28;20486;-68
2021/11/11 04:04:54;;;;;;;38.80;19.27;;;;;;;;;;5117905;28;20499;-68
2021/11/11 04:07:22;;;;;;;38.20;18.40;;;;;;;;;;5118449;28;20466;-68
2021/11/11 04:09:50;;;;;;;40.17;20.27;;;;;;;;;;5110406;28;20519;-68
2021/11/11 04:12:18;;;;;;;40.60;19.33;;;;;;;;;;5106983;28;20518;-67
2021/11/11 04:14:46;;;;;;;39.97;18.53;;;;;;;;;;5102259;28;20455;-67
2021/11/11 04:17:14;;;;;;;39.07;18.07;;;;;;;;;;5105447;28;20517;-67
2021/11/11 04:19:42;;;;;;;39.53;18.17;;;;;;;;;;5106483;28;20538;-67
2021/11/11 04:22:11;;;;;;;31.80;17.93;;;;;;;;;;5106208;28;20443;-67
2021/11/11 04:24:40;;;;;;;34.23;18.83;;;;;;;;;;5107079;28;20841;-67
2021/11/11 04:27:13;;;;;;;35.77;17.00;;;;;;;;;;5102691;28;20539;-67
2021/11/11 04:29:45;;;;;;;35.00;18.63;;;;;;;;;;5105854;28;20528;-67
2021/11/11 04:32:15;;;;;;;44.80;18.70;;;;;;;;;;5104058;28;20504;-67
2021/11/11 04:34:45;;;;;;;38.37;18.10;;;;;;;;;;5103074;28;20471;-67
2021/11/11 04:37:27;;;;;;;38.57;18.13;;;;;;;;;;5101460;28;20539;-66
2021/11/11 04:43:01;;;;;;;41.13;19.17;;;;;;;;;;5092030;28;20542;-67
2021/11/11 04:51:26;;;;;;;35.60;16.80;;;;;;;;;;5104747;28;20538;-67
2021/11/11 05:02:51;;;;;;;38.87;17.77;;;;;;;;;;5124407;27;20549;-65
2021/11/11 05:05:19;;;;;;;40.83;18.20;;;;;;;;;;5123216;28;20435;-68
2021/11/11 05:07:48;;;;;;;46.10;18.13;;;;;;;;;;5122784;28;20518;-68
2021/11/11 05:10:16;;;;;;;33.30;16.20;;;;;;;;;;5122623;28;20964;-67
2021/11/11 05:12:44;;;;;;;40.43;18.00;;;;;;;;;;5124486;28;20523;-68
2021/11/11 05:15:12;;;;;;;32.17;16.83;;;;;;;;;;5122514;27;20542;-68
2021/11/11 05:17:45;;;;;;;35.27;17.60;;;;;;;;;;5123121;27;20876;-68
2021/11/11 05:20:13;;;;;;;35.63;17.27;;;;;;;;;;5125185;28;20470;-68
2021/11/11 05:22:42;;;;;;;39.60;17.70;;;;;;;;;;5121637;28;20457;-67
2021/11/11 05:25:11;;;;;;;30.93;15.63;;;;;;;;;;5123109;27;20517;-67
2021/11/11 05:27:39;;;;;;;37.20;16.60;;;;;;;;;;5119976;28;20849;-68
2021/11/11 05:30:09;;;;;;;30.70;15.90;;;;;;;;;;5123438;27;20869;-67
2021/11/11 05:32:37;;;;;;;31.93;16.13;;;;;;;;;;5122681;28;20870;-67
2021/11/11 05:35:08;;;;;;;30.00;15.83;;;;;;;;;;5123869;28;20997;-67
2021/11/11 05:37:36;;;;;;;27.13;16.13;;;;;;;;;;5122061;28;21040;-67
2021/11/11 05:40:05;;;;;;;29.93;16.17;;;;;;;;;;5114225;28;20531;-68
2021/11/11 05:42:33;;;;;;;32.70;16.43;;;;;;;;;;5114300;28;20562;-68
2021/11/11 05:45:01;;;;;;;29.10;16.20;;;;;;;;;;5114704;28;20446;-71
2021/11/11 05:47:29;;;;;;;30.13;15.27;;;;;;;;;;5114813;28;20480;-70
2021/11/11 05:49:57;;;;;;;29.33;16.43;;;;;;;;;;5114475;28;20526;-71
2021/11/11 05:52:27;;;;;;;30.77;15.80;;;;;;;;;;5114855;28;20525;-69
2021/11/11 05:54:55;;;;;;;32.20;15.93;;;;;;;;;;5114429;28;20506;-73
2021/11/11 05:57:23;;;;;;;29.77;16.10;;;;;;;;;;5114768;28;20535;-73
2021/11/11 05:59:51;;;;;;;29.10;15.40;;;;;;;;;;5114413;28;20542;-70
2021/11/11 06:02:21;;;;;;;26.73;14.70;;;;;;;;;;5114084;28;20529;-71
2021/11/11 06:04:49;;;;;;;28.33;15.67;;;;;;;;;;5114358;28;20526;-71
2021/11/11 06:07:17;;;;;;;30.03;15.80;;;;;;;;;;5114178;28;20857;-71
2021/11/11 06:09:46;;;;;;;30.77;14.90;;;;;;;;;;5113700;28;20597;-71
2021/11/11 06:12:14;;;;;;;25.80;13.90;;;;;;;;;;5109387;28;20531;-71
2021/11/11 06:14:42;;;;;;;30.13;14.37;;;;;;;;;;5100722;28;20526;-72
2021/11/11 06:17:10;;;;;;;27.70;14.87;;;;;;;;;;5100730;28;20511;-72
2021/11/11 06:19:40;;;;;;;27.23;14.10;;;;;;;;;;5100579;28;20513;-71
2021/11/11 06:22:09;;;;;;;23.67;12.77;;;;;;;;;;5100922;28;20505;-71
2021/11/11 06:24:37;;;;;;;30.17;15.70;;;;;;;;;;5100013;28;20651;-74
2021/11/11 06:27:07;;;;;;;28.67;15.23;;;;;;;;;;5096868;28;20470;-74
2021/11/11 06:29:35;;;;;;;26.90;15.77;;;;;;;;;;5099668;28;20455;-73
2021/11/11 06:32:03;;;;;;;30.07;16.53;;;;;;;;;;5099625;28;20634;-74
2021/11/11 06:34:51;;;;;;;28.33;15.83;;;;;;;;;;5099028;28;20198;-73
2021/11/11 06:37:20;;;;;;;24.73;14.07;;;;;;;;;;5096681;28;20275;-74
2021/11/11 06:39:48;;;;;;;31.00;16.97;;;;;;;;;;5099189;28;20274;-73
2021/11/11 06:42:18;;;;;;;31.53;16.60;;;;;;;;;;5099596;28;20660;-73
2021/11/11 06:44:48;;;;;;;31.90;17.83;;;;;;;;;;5097223;28;20205;-74
2021/11/11 06:47:16;;;;;;;31.17;16.43;;;;;;;;;;5099665;28;20292;-74
2021/11/11 06:49:44;;;;;;;28.17;15.00;;;;;;;;;;5097293;28;20225;-73
2021/11/11 06:52:12;;;;;;;31.57;16.17;;;;;;;;;;5109484;28;20189;-74
2021/11/11 06:54:42;;;;;;;29.97;16.37;;;;;;;;;;5109310;28;20222;-74
2021/11/11 06:57:13;;;;;;;28.77;15.20;;;;;;;;;;5108082;28;20228;-75
2021/11/11 06:59:42;;;;;;;31.67;15.50;;;;;;;;;;5108663;28;20227;-74
2021/11/11 07:02:11;;;;;;;26.90;15.40;;;;;;;;;;5100389;28;20233;-74
2021/11/11 07:04:39;;;;;;;30.47;16.53;;;;;;;;;;5087766;28;20662;-74
2021/11/11 07:07:08;;;;;;;31.50;16.60;;;;;;;;;;5092174;28;20200;-74
2021/11/11 07:09:36;;;;;;;31.10;16.63;;;;;;;;;;5106783;28;20260;-74
2021/11/11 07:12:05;;;;;;;31.53;16.90;;;;;;;;;;5105760;28;20243;-75
2021/11/11 07:14:33;;;;;;;29.83;16.17;;;;;;;;;;5109757;28;20204;-73
2021/11/11 07:17:03;;;;;;;36.90;17.43;;;;;;;;;;5093347;28;20216;-72
2021/11/11 07:19:32;;;;;;;34.63;17.33;;;;;;;;;;5095159;28;20312;-68
2021/11/11 07:22:01;;;;;;;34.83;16.70;;;;;;;;;;5089519;28;20214;-69
2021/11/11 07:24:30;;;;;;;38.10;18.20;;;;;;;;;;5086013;28;20198;-69
2021/11/11 07:26:58;;;;;;;31.33;17.73;;;;;;;;;;5100928;28;20624;-68
2021/11/11 07:29:26;;;;;;;34.27;17.90;;;;;;;;;;5095340;28;20245;-67
2021/11/11 07:31:55;;;;;;;28.63;16.83;;;;;;;;;;5098477;28;20237;-67
2021/11/11 07:34:25;;;;;;;36.93;18.10;;;;;;;;;;5100734;28;20232;-67
2021/11/11 07:36:53;;;;;;;33.03;17.00;;;;;;;;;;5107539;28;20201;-67
2021/11/11 07:39:22;;;;;;;31.83;16.87;;;;;;;;;;5108564;28;20221;-67
2021/11/11 07:41:54;;;;;;;37.27;18.63;;;;;;;;;;5106938;28;20270;-67
2021/11/11 07:44:22;;;;;;;29.80;16.60;;;;;;;;;;5099679;28;20700;-69
2021/11/11 07:46:50;;;;;;;34.17;16.97;;;;;;;;;;5094060;28;20282;-65
2021/11/11 07:49:19;;;;;;;29.97;16.47;;;;;;;;;;5094067;28;20224;-65
2021/11/11 07:51:49;;;;;;;29.93;16.90;;;;;;;;;;5098118;28;20206;-66
2021/11/11 07:54:17;;;;;;;28.93;15.73;;;;;;;;;;5104088;28;20222;-66
2021/11/11 07:56:45;;;;;;;31.50;17.03;;;;;;;;;;5100400;28;20225;-65
2021/11/11 07:59:14;;;;;;;33.93;17.90;;;;;;;;;;5100116;28;20630;-65
2021/11/11 08:01:42;;;;;;;37.10;17.97;;;;;;;;;;5104582;28;20222;-65
2021/11/11 08:04:13;;;;;;;37.90;17.20;;;;;;;;;;5098324;28;20232;-65
2021/11/11 08:06:41;;;;;;;33.40;17.30;;;;;;;;;;5097657;28;20197;-65
2021/11/11 08:09:11;;;;;;;37.00;17.23;;;;;;;;;;5098373;28;20259;-69
2021/11/11 08:11:40;;;;;;;38.10;19.07;;;;;;;;;;5098047;28;20751;-67
2021/11/11 08:14:08;;;;;;;33.83;17.73;;;;;;;;;;5097852;28;20205;-68
2021/11/11 08:16:37;;;;;;;36.03;18.03;;;;;;;;;;5098260;28;20205;-67
2021/11/11 08:19:05;;;;;;;40.97;18.20;;;;;;;;;;5098060;28;20455;-67
2021/11/11 08:21:33;;;;;;;33.43;17.70;;;;;;;;;;5097971;28;20493;-67
2021/11/11 08:24:02;;;;;;;35.83;17.87;;;;;;;;;;5097635;28;20483;-68
2021/11/11 08:26:32;;;;;;;33.37;16.90;;;;;;;;;;5097214;28;20729;-68
2021/11/11 08:29:04;;;;;;;31.97;17.77;;;;;;;;;;5097634;28;20232;-67
2021/11/11 08:31:32;;;;;;;35.77;18.23;;;;;;;;;;5092551;28;20451;-67
2021/11/11 08:34:00;;;;;;;35.50;17.47;;;;;;;;;;5098165;28;20518;-67
2021/11/11 08:36:29;;;;;;;35.83;17.23;;;;;;;;;;5100010;28;20846;-67
2021/11/11 08:38:57;;;;;;;35.20;16.77;;;;;;;;;;5101314;28;20455;-66
2021/11/11 08:41:26;;;;;;;37.70;17.47;;;;;;;;;;5097438;28;20446;-68
2021/11/11 08:43:56;;;;;;;35.07;17.67;;;;;;;;;;5096500;28;20479;-67
2021/11/11 08:46:24;;;;;;;39.63;18.13;;;;;;;;;;5097232;28;20759;-66
2021/11/11 08:48:53;;;;;;;33.77;16.27;;;;;;;;;;5100197;28;20455;-66
2021/11/11 08:51:21;;;;;;;33.03;16.97;;;;;;;;;;5106525;28;20440;-66
2021/11/11 08:53:49;;;;;;;32.03;16.80;;;;;;;;;;5104356;28;20525;-66
2021/11/11 08:56:18;;;;;;;29.60;16.83;;;;;;;;;;5104952;28;20435;-66
2021/11/11 08:58:46;;;;;;;28.63;15.60;;;;;;;;;;5100185;28;20549;-65
2021/11/11 09:01:16;;;;;;;32.63;18.00;;;;;;;;;;5103811;28;20459;-65
2021/11/11 09:03:44;;;;;;;38.00;18.00;;;;;;;;;;5104079;28;20471;-65
2021/11/11 09:06:13;;;;;;;33.90;16.20;;;;;;;;;;5104038;28;20463;-65
2021/11/11 09:08:41;;;;;;;31.80;17.40;;;;;;;;;;5105090;28;20459;-66
2021/11/11 09:11:09;;;;;;;35.70;16.83;;;;;;;;;;5099740;28;20442;-66
2021/11/11 09:13:37;;;;;;;40.13;18.90;;;;;;;;;;5104063;28;20435;-66
2021/11/11 09:16:06;;;;;;;32.50;17.83;;;;;;;;;;5101630;28;20852;-66
2021/11/11 09:18:35;;;;;;;35.07;19.13;;;;;;;;;;5104527;28;20551;-66
2021/11/11 09:21:05;;;;;;;39.77;19.63;;;;;;;;;;5097618;28;20197;-65
2021/11/11 09:23:33;;;;;;;33.07;18.80;;;;;;;;;;5095272;28;20471;-66
2021/11/11 09:26:02;;;;;;;39.50;19.57;;;;;;;;;;5097030;28;20197;-66
2021/11/11 09:28:30;;;;;;;42.03;20.33;;;;;;;;;;5094574;28;20455;-65
2021/11/11 09:30:59;;;;;;;35.33;19.67;;;;;;;;;;5096858;28;20526;-65
2021/11/11 09:33:27;;;;;;;38.80;19.33;;;;;;;;;;5094534;28;20458;-65
2021/11/11 09:35:57;;;;;;;36.40;19.30;;;;;;;;;;5097229;28;20432;-65
2021/11/11 09:38:26;;;;;;;43.33;21.47;;;;;;;;;;5096560;28;20501;-66
2021/11/11 09:40:55;;;;;;;43.20;21.40;;;;;;;;;;5096627;28;21026;-66
2021/11/11 09:43:34;;;;;;;39.27;20.43;;;;;;;;;;5095690;28;20483;-65
2021/11/11 09:46:03;;;;;;;42.70;21.07;;;;;;;;;;5086750;28;20455;-66
2021/11/11 09:48:32;;;;;;;42.60;19.93;;;;;;;;;;5099622;28;20585;-65
2021/11/11 09:51:01;;;;;;;39.13;18.83;;;;;;;;;;5101021;28;20530;-65
2021/11/11 09:53:30;;;;;;;37.00;19.83;;;;;;;;;;5101551;28;20474;-65
2021/11/11 09:58:45;;;;;;;37.13;20.00;;;;;;;;;;5100743;28;20514;-65
2021/11/11 10:01:15;;;;;;;39.63;20.40;;;;;;;;;;5100343;28;21316;-65
2021/11/11 10:03:45;;;;;;;34.40;18.40;;;;;;;;;;5100345;28;20479;-65
2021/11/11 10:06:15;;;;;;;37.23;19.90;;;;;;;;;;5100293;28;20538;-65
2021/11/11 10:08:44;;;;;;;36.23;20.30;;;;;;;;;;5100463;28;20535;-66
2021/11/11 10:11:14;;;;;;;33.77;20.10;;;;;;;;;;5100938;28;20482;-66
2021/11/11 10:13:42;;;;;;;28.77;17.27;;;;;;;;;;5100476;28;20494;-65
2021/11/11 10:16:11;;;;;;;36.27;19.57;;;;;;;;;;5101304;28;20535;-66
2021/11/11 10:18:41;;;;;;;35.63;18.77;;;;;;;;;;5100126;28;20502;-66
2021/11/11 10:21:30;;;;;;;36.40;19.40;;;;;;;;;;5090703;28;20448;-66
2021/11/11 10:24:10;;;;;;;39.43;19.00;;;;;;;;;;5097248;28;20479;-65
2021/11/11 10:26:41;;;;;;;41.20;18.73;;;;;;;;;;5097696;28;20690;-65
2021/11/11 10:29:19;;;;;;;42.10;19.60;;;;;;;;;;5099037;28;20491;-65
2021/11/11 10:31:50;;;;;;;35.57;18.70;;;;;;;;;;5099923;28;20465;-65
2021/11/11 10:34:19;;;;;;;32.70;18.43;;;;;;;;;;5099866;28;20468;-65
2021/11/11 10:36:49;;;;;;;33.30;18.07;;;;;;;;;;5102507;28;20438;-65
2021/11/11 10:39:18;;;;;;;36.67;18.57;;;;;;;;;;5104268;28;21036;-65
2021/11/11 10:41:47;;;;;;;38.00;18.50;;;;;;;;;;5105836;28;20859;-66
2021/11/11 10:44:19;;;;;;;33.97;18.43;;;;;;;;;;5106611;28;20288;-66
2021/11/11 10:46:48;;;;;;;291.97;142.87;;;;;;;;;;5103282;28;20245;-67
2021/11/11 10:49:27;;;;;;;51.83;26.77;;;;;;;;;;5111778;28;20247;-67
2021/11/11 10:51:58;;;;;;;33.07;19.10;;;;;;;;;;5102729;28;20204;-67
2021/11/11 10:54:26;;;;;;;30.27;17.93;;;;;;;;;;5105761;28;20276;-67
2021/11/11 10:56:54;;;;;;;37.83;20.27;;;;;;;;;;5097692;28;20483;-66
2021/11/11 10:59:22;;;;;;;33.10;17.80;;;;;;;;;;5099081;28;20550;-66
2021/11/11 11:02:01;;;;;;;32.50;18.93;;;;;;;;;;5095738;28;20305;-67
2021/11/11 11:04:30;;;;;;;34.60;19.73;;;;;;;;;;5090307;28;21009;-66
2021/11/11 11:07:16;;;;;;;37.00;19.00;;;;;;;;;;5080944;28;20285;-67
2021/11/11 11:09:44;;;;;;;34.20;17.97;;;;;;;;;;5083050;28;20456;-68
2021/11/11 11:12:26;;;;;;;35.30;17.83;;;;;;;;;;5081564;28;20483;-67
2021/11/11 11:14:55;;;;;;;31.23;18.43;;;;;;;;;;5082124;28;20432;-67
2021/11/11 11:17:23;;;;;;;31.03;17.77;;;;;;;;;;5079688;28;20505;-67
2021/11/11 11:19:51;;;;;;;39.47;19.30;;;;;;;;;;5080226;28;20885;-67
2021/11/11 11:22:25;;;;;;;30.70;16.60;;;;;;;;;;5097978;28;20501;-68
2021/11/11 11:25:02;;;;;;;32.10;17.23;;;;;;;;;;5096887;28;20904;-68
2021/11/11 11:27:34;;;;;;;33.57;18.20;;;;;;;;;;5096865;28;20467;-67
2021/11/11 11:30:10;;;;;;;29.10;17.20;;;;;;;;;;5098844;28;20512;-67
2021/11/11 11:32:42;;;;;;;34.63;19.33;;;;;;;;;;5099034;28;20785;-67
2021/11/11 11:35:11;;;;;;;31.43;16.67;;;;;;;;;;5094033;28;20458;-67
2021/11/11 11:37:40;;;;;;;29.60;17.03;;;;;;;;;;5098609;28;20457;-67
2021/11/11 11:40:10;;;;;;;29.77;16.00;;;;;;;;;;5096350;28;20225;-67
2021/11/11 11:42:39;;;;;;;28.07;17.30;;;;;;;;;;5097887;28;20704;-67
2021/11/11 11:45:09;;;;;;;28.97;16.60;;;;;;;;;;5096806;28;20476;-67
2021/11/11 11:47:40;;;;;;;29.57;15.90;;;;;;;;;;5098658;28;20461;-67
2021/11/11 11:50:09;;;;;;;30.50;16.03;;;;;;;;;;5096300;28;20484;-68
2021/11/11 11:52:39;;;;;;;31.63;17.33;;;;;;;;;;5099197;28;20206;-68
2021/11/11 11:55:12;;;;;;;29.40;16.93;;;;;;;;;;5096098;28;20258;-68
2021/11/11 11:57:49;;;;;;;32.80;17.50;;;;;;;;;;5098277;28;20336;-67
2021/11/11 12:00:30;;;;;;;30.97;16.60;;;;;;;;;;5098208;28;20782;-67
2021/11/11 12:06:01;;;;;;;27.23;15.80;;;;;;;;;;5077402;28;20259;-68
2021/11/11 12:08:36;;;;;;;27.53;15.87;;;;;;;;;;5096727;28;20249;-69
2021/11/11 12:14:17;;;;;;;24.20;14.93;;;;;;;;;;5033757;28;20227;-68
2021/11/11 12:39:40;;;;;;;31.33;17.77;;;;;;;;;;5097254;28;20795;-66
2021/11/11 12:42:11;;;;;;;30.10;17.13;;;;;;;;;;5097763;28;20778;-66
2021/11/11 12:44:54;;;;;;;31.67;16.57;;;;;;;;;;5097677;28;20222;-66
2021/11/11 12:47:32;;;;;;;28.87;17.10;;;;;;;;;;5088098;28;20241;-69
2021/11/11 12:50:15;;;;;;;26.90;15.77;;;;;;;;;;5094054;28;20299;-69
2021/11/11 12:52:43;;;;;;;28.83;16.50;;;;;;;;;;5097041;28;20274;-69
2021/11/11 12:55:15;;;;;;;26.33;15.43;;;;;;;;;;5096750;28;20293;-68
2021/11/11 12:57:54;;;;;;;30.50;17.20;;;;;;;;;;5096858;28;20578;-70
2021/11/11 13:00:33;;;;;;;31.93;17.97;;;;;;;;;;5096884;28;20244;-67
2021/11/11 13:03:03;;;;;;;26.03;15.53;;;;;;;;;;5089226;28;20224;-67
2021/11/11 13:05:49;;;;;;;28.90;16.73;;;;;;;;;;5096600;28;20222;-67
2021/11/11 13:08:18;;;;;;;31.23;16.17;;;;;;;;;;5093647;28;20222;-67
2021/11/11 13:10:56;;;;;;;27.37;15.33;;;;;;;;;;5096882;28;20292;-68
2021/11/11 13:13:26;;;;;;;27.63;15.70;;;;;;;;;;5098343;28;20201;-65
2021/11/11 13:15:58;;;;;;;28.47;16.87;;;;;;;;;;5097380;28;20260;-65
2021/11/11 13:18:48;;;;;;;22.97;14.53;;;;;;;;;;5097088;28;20306;-66
2021/11/11 13:21:20;;;;;;;29.03;16.90;;;;;;;;;;5097286;28;20293;-65
2021/11/11 13:24:03;;;;;;;25.53;16.30;;;;;;;;;;5093610;28;20285;-66
2021/11/11 14:00:28;;;;;;;27.13;16.27;;;;;;;;;;5106999;28;20232;-66
2021/11/11 16:01:03;;;;;;;27.77;16.17;;;;;;;;;;5060417;28;20653;-68
2021/11/11 16:20:18;;;;;;;29.17;16.57;;;;;;;;;;5105010;28;20205;-68
2021/11/11 16:23:00;;;;;;;31.03;15.87;;;;;;;;;;5104967;28;20267;-69
2021/11/11 16:26:00;;;;;;;26.30;16.90;;;;;;;;;;5102962;28;20240;-69
2021/11/11 16:28:28;;;;;;;29.20;16.57;;;;;;;;;;5103441;28;20259;-69
2021/11/11 16:30:56;;;;;;;27.07;15.37;;;;;;;;;;5105469;28;20687;-68
2021/11/11 16:33:25;;;;;;;31.47;16.80;;;;;;;;;;5101434;28;20225;-68
2021/11/11 16:35:53;;;;;;;26.90;15.77;;;;;;;;;;5084527;28;20218;-68
2021/11/11 16:38:22;;;;;;;30.47;18.20;;;;;;;;;;5081747;28;20308;-68
2021/11/11 16:40:51;;;;;;;28.77;16.70;;;;;;;;;;5084208;28;20304;-67
2021/11/11 16:43:19;;;;;;;31.30;18.13;;;;;;;;;;5088773;28;20265;-69
2021/11/11 16:45:47;;;;;;;29.50;16.83;;;;;;;;;;5096488;28;20309;-68
2021/11/11 16:48:15;;;;;;;29.20;17.67;;;;;;;;;;5095305;28;20221;-68
2021/11/11 16:50:43;;;;;;;26.40;15.27;;;;;;;;;;5097321;28;20293;-68
2021/11/11 16:53:11;;;;;;;29.83;16.57;;;;;;;;;;5097398;28;20715;-68
2021/11/11 16:55:41;;;;;;;35.47;18.37;;;;;;;;;;5096966;28;20311;-68
2021/11/11 16:58:10;;;;;;;35.57;19.80;;;;;;;;;;5094400;28;20304;-70
2021/11/11 17:00:38;;;;;;;28.93;16.97;;;;;;;;;;5097647;28;20316;-70
2021/11/11 17:03:07;;;;;;;37.17;18.70;;;;;;;;;;5097764;28;20209;-69
2021/11/11 17:05:35;;;;;;;33.00;19.60;;;;;;;;;;5085759;28;20289;-69
2021/11/11 17:08:03;;;;;;;31.27;18.60;;;;;;;;;;5093704;28;20230;-69
2021/11/11 17:10:31;;;;;;;31.07;17.63;;;;;;;;;;5097463;28;20288;-69
2021/11/11 17:13:02;;;;;;;29.90;16.87;;;;;;;;;;5097560;28;20237;-69
2021/11/11 17:15:32;;;;;;;31.43;16.80;;;;;;;;;;5097831;28;20668;-69
2021/11/11 17:18:00;;;;;;;28.33;17.03;;;;;;;;;;5098052;28;20250;-69
2021/11/11 17:20:30;;;;;;;29.67;17.33;;;;;;;;;;5097173;28;20245;-69
2021/11/11 17:23:00;;;;;;;26.83;16.30;;;;;;;;;;5097615;28;20237;-69
2021/11/11 17:25:34;;;;;;;29.53;16.30;;;;;;;;;;5096670;28;20227;-69
2021/11/11 17:28:15;;;;;;;33.23;17.20;;;;;;;;;;5095611;28;20783;-69
2021/11/11 17:30:44;;;;;;;33.60;18.63;;;;;;;;;;5096628;28;20280;-69
2021/11/11 17:33:13;;;;;;;35.47;19.67;;;;;;;;;;5097131;28;20276;-69
2021/11/11 17:35:41;;;;;;;38.20;20.30;;;;;;;;;;5096785;28;20289;-69
2021/11/11 17:38:09;;;;;;;30.97;18.03;;;;;;;;;;5097017;28;20648;-69
2021/11/11 17:40:42;;;;;;;30.60;16.43;;;;;;;;;;5097371;28;20210;-69
2021/11/11 17:43:11;;;;;;;27.77;15.63;;;;;;;;;;5095595;28;20289;-69
2021/11/11 17:45:43;;;;;;;31.67;17.00;;;;;;;;;;5097498;28;20298;-69
2021/11/11 17:48:11;;;;;;;29.37;16.30;;;;;;;;;;5097482;28;20263;-69
2021/11/11 17:50:42;;;;;;;30.77;16.90;;;;;;;;;;5097527;28;20233;-69
2021/11/11 17:53:11;;;;;;;33.57;17.20;;;;;;;;;;5097127;28;20716;-69
2021/11/11 17:55:42;;;;;;;27.60;16.30;;;;;;;;;;5097132;28;20289;-69
2021/11/11 17:58:16;;;;;;;30.17;16.47;;;;;;;;;;5097081;28;20274;-68
2021/11/11 18:00:47;;;;;;;37.17;17.83;;;;;;;;;;5097223;28;20260;-68
2021/11/11 18:03:18;;;;;;;30.60;16.70;;;;;;;;;;5096827;28;20575;-69
2021/11/11 18:05:47;;;;;;;30.33;16.03;;;;;;;;;;5090445;28;20202;-69
2021/11/11 18:08:23;;;;;;;27.47;17.23;;;;;;;;;;5102577;28;20323;-67
2021/11/11 18:10:52;;;;;;;31.87;17.73;;;;;;;;;;5108814;28;20268;-67